sensor_id;sensor_type;location;lat;lon;timestamp;temperature;humidity
77052;SHT30;65980;44.898;8.602;2023-06-05T00:01:04;16.99;90.57
77052;SHT30;65980;44.898;8.602;2023-06-05T00:04:12;16.84;90.45
77052;SHT30;65980;44.898;8.602;2023-06-05T00:07:17;17.07;90.61
77052;SHT30;65980;44.898;8.602;2023-06-05T00:10:24;17.16;90.37
77052;SHT30;65980;44.898;8.602;2023-06-05T00:13:36;17.06;90.64
77052;SHT30;65980;44.898;8.602;2023-06-05T00:16:39;17.06;90.39
77052;SHT30;65980;44.898;8.602;2023-06-05T00:19:44;16.90;90.99
77052;SHT30;65980;44.898;8.602;2023-06-05T00:23:03;17.08;90.89
77052;SHT30;65980;44.898;8.602;2023-06-05T00:26:10;17.11;90.76
77052;SHT30;65980;44.898;8.602;2023-06-05T00:29:20;17.13;90.77
77052;SHT30;65980;44.898;8.602;2023-06-05T00:32:41;17.21;90.81
77052;SHT30;65980;44.898;8.602;2023-06-05T00:35:48;16.87;90.53
77052;SHT30;65980;44.898;8.602;2023-06-05T00:38:52;16.86;90.85
77052;SHT30;65980;44.898;8.602;2023-06-05T00:41:56;17.08;90.84
77052;SHT30;65980;44.898;8.602;2023-06-05T00:48:29;16.97;90.22
77052;SHT30;65980;44.898;8.602;2023-06-05T00:51:44;16.86;89.84
77052;SHT30;65980;44.898;8.602;2023-06-05T00:54:53;16.89;90.74
77052;SHT30;65980;44.898;8.602;2023-06-05T00:58:02;17.10;90.16
77052;SHT30;65980;44.898;8.602;2023-06-05T01:01:12;16.72;89.79
77052;SHT30;65980;44.898;8.602;2023-06-05T01:07:59;17.03;89.33
77052;SHT30;65980;44.898;8.602;2023-06-05T01:18:39;16.63;89.41
77052;SHT30;65980;44.898;8.602;2023-06-05T01:26:07;16.56;89.47
77052;SHT30;65980;44.898;8.602;2023-06-05T01:36:38;16.82;88.96
77052;SHT30;65980;44.898;8.602;2023-06-05T01:39:56;16.94;88.74
77052;SHT30;65980;44.898;8.602;2023-06-05T01:43:12;16.58;88.65
77052;SHT30;65980;44.898;8.602;2023-06-05T01:49:52;16.96;88.78
77052;SHT30;65980;44.898;8.602;2023-06-05T01:53:37;16.86;88.69
77052;SHT30;65980;44.898;8.602;2023-06-05T01:56:54;17.03;87.97
77052;SHT30;65980;44.898;8.602;2023-06-05T02:00:05;16.89;88.53
77052;SHT30;65980;44.898;8.602;2023-06-05T02:03:23;16.76;89.20
77052;SHT30;65980;44.898;8.602;2023-06-05T02:06:33;16.79;89.16
77052;SHT30;65980;44.898;8.602;2023-06-05T02:09:44;16.93;89.24
77052;SHT30;65980;44.898;8.602;2023-06-05T02:12:57;16.91;88.80
77052;SHT30;65980;44.898;8.602;2023-06-05T02:16:07;17.04;88.60
77052;SHT30;65980;44.898;8.602;2023-06-05T02:19:33;17.03;88.42
77052;SHT30;65980;44.898;8.602;2023-06-05T02:22:47;17.13;88.57
77052;SHT30;65980;44.898;8.602;2023-06-05T02:26:21;17.20;87.62
77052;SHT30;65980;44.898;8.602;2023-06-05T02:29:28;17.06;87.55
77052;SHT30;65980;44.898;8.602;2023-06-05T02:32:43;16.97;87.62
77052;SHT30;65980;44.898;8.602;2023-06-05T02:35:48;16.90;87.84
77052;SHT30;65980;44.898;8.602;2023-06-05T02:39:15;16.91;88.60
77052;SHT30;65980;44.898;8.602;2023-06-05T02:42:32;17.03;88.52
77052;SHT30;65980;44.898;8.602;2023-06-05T02:46:22;17.08;87.73
77052;SHT30;65980;44.898;8.602;2023-06-05T02:49:43;17.08;87.74
77052;SHT30;65980;44.898;8.602;2023-06-05T02:52:55;16.96;87.78
77052;SHT30;65980;44.898;8.602;2023-06-05T02:56:13;16.73;88.48
77052;SHT30;65980;44.898;8.602;2023-06-05T02:59:29;16.61;88.86
77052;SHT30;65980;44.898;8.602;2023-06-05T03:02:49;16.73;88.56
77052;SHT30;65980;44.898;8.602;2023-06-05T03:06:06;16.65;88.81
77052;SHT30;65980;44.898;8.602;2023-06-05T03:09:24;16.75;88.61
77052;SHT30;65980;44.898;8.602;2023-06-05T03:12:33;16.58;89.25
77052;SHT30;65980;44.898;8.602;2023-06-05T03:15:42;16.36;89.63
77052;SHT30;65980;44.898;8.602;2023-06-05T03:19:02;16.36;90.31
77052;SHT30;65980;44.898;8.602;2023-06-05T03:22:12;16.34;90.38
77052;SHT30;65980;44.898;8.602;2023-06-05T03:25:27;16.34;90.32
77052;SHT30;65980;44.898;8.602;2023-06-05T03:28:38;16.34;90.17
77052;SHT30;65980;44.898;8.602;2023-06-05T03:31:56;16.35;89.78
77052;SHT30;65980;44.898;8.602;2023-06-05T03:35:13;16.38;89.54
77052;SHT30;65980;44.898;8.602;2023-06-05T03:38:25;16.31;90.14
77052;SHT30;65980;44.898;8.602;2023-06-05T03:41:33;16.34;90.23
77052;SHT30;65980;44.898;8.602;2023-06-05T03:44:40;16.24;90.44
77052;SHT30;65980;44.898;8.602;2023-06-05T03:51:33;16.48;89.82
77052;SHT30;65980;44.898;8.602;2023-06-05T03:54:37;16.56;89.46
77052;SHT30;65980;44.898;8.602;2023-06-05T04:01:39;16.76;88.40
77052;SHT30;65980;44.898;8.602;2023-06-05T04:04:43;16.73;88.50
77052;SHT30;65980;44.898;8.602;2023-06-05T04:08:13;16.61;88.90
77052;SHT30;65980;44.898;8.602;2023-06-05T04:11:18;16.45;89.64
77052;SHT30;65980;44.898;8.602;2023-06-05T04:14:34;16.32;90.06
77052;SHT30;65980;44.898;8.602;2023-06-05T04:18:00;16.47;89.89
77052;SHT30;65980;44.898;8.602;2023-06-05T04:21:28;16.53;89.62
77052;SHT30;65980;44.898;8.602;2023-06-05T04:28:39;16.52;89.41
77052;SHT30;65980;44.898;8.602;2023-06-05T04:31:49;16.59;89.30
77052;SHT30;65980;44.898;8.602;2023-06-05T04:35:32;16.73;88.99
77052;SHT30;65980;44.898;8.602;2023-06-05T04:38:46;16.72;88.84
77052;SHT30;65980;44.898;8.602;2023-06-05T04:41:54;16.77;88.45
77052;SHT30;65980;44.898;8.602;2023-06-05T04:45:32;16.76;88.38
77052;SHT30;65980;44.898;8.602;2023-06-05T04:49:06;16.63;88.72
77052;SHT30;65980;44.898;8.602;2023-06-05T04:52:17;16.56;88.53
77052;SHT30;65980;44.898;8.602;2023-06-05T04:55:25;16.59;89.37
77052;SHT30;65980;44.898;8.602;2023-06-05T05:02:31;16.75;88.79
77052;SHT30;65980;44.898;8.602;2023-06-05T05:05:43;16.66;89.12
77052;SHT30;65980;44.898;8.602;2023-06-05T05:13:02;16.61;89.23
77052;SHT30;65980;44.898;8.602;2023-06-05T05:16:08;16.53;89.66
77052;SHT30;65980;44.898;8.602;2023-06-05T05:19:12;16.53;89.72
77052;SHT30;65980;44.898;8.602;2023-06-05T05:22:19;16.59;88.98
77052;SHT30;65980;44.898;8.602;2023-06-05T05:25:23;16.62;89.15
77052;SHT30;65980;44.898;8.602;2023-06-05T05:28:29;16.52;89.46
77052;SHT30;65980;44.898;8.602;2023-06-05T05:31:33;16.52;89.73
77052;SHT30;65980;44.898;8.602;2023-06-05T05:34:37;16.55;89.80
77052;SHT30;65980;44.898;8.602;2023-06-05T05:37:41;16.63;89.08
77052;SHT30;65980;44.898;8.602;2023-06-05T05:40:46;16.56;89.30
77052;SHT30;65980;44.898;8.602;2023-06-05T05:43:50;16.70;88.60
77052;SHT30;65980;44.898;8.602;2023-06-05T05:46:54;16.93;87.97
77052;SHT30;65980;44.898;8.602;2023-06-05T05:49:58;17.06;87.60
77052;SHT30;65980;44.898;8.602;2023-06-05T05:53:13;17.14;87.22
77052;SHT30;65980;44.898;8.602;2023-06-05T05:56:42;17.23;86.80
77052;SHT30;65980;44.898;8.602;2023-06-05T05:59:48;17.28;86.64
77052;SHT30;65980;44.898;8.602;2023-06-05T06:02:59;17.32;86.85
77052;SHT30;65980;44.898;8.602;2023-06-05T06:06:15;17.18;86.90
77052;SHT30;65980;44.898;8.602;2023-06-05T06:09:28;17.42;86.79
77052;SHT30;65980;44.898;8.602;2023-06-05T06:12:35;17.59;86.16
77052;SHT30;65980;44.898;8.602;2023-06-05T06:16:02;17.53;85.81
77052;SHT30;65980;44.898;8.602;2023-06-05T06:19:26;17.65;85.78
77052;SHT30;65980;44.898;8.602;2023-06-05T06:22:33;17.70;85.28
77052;SHT30;65980;44.898;8.602;2023-06-05T06:30:44;17.48;85.20
77052;SHT30;65980;44.898;8.602;2023-06-05T06:33:48;17.61;85.53
77052;SHT30;65980;44.898;8.602;2023-06-05T06:40:27;17.80;85.73
77052;SHT30;65980;44.898;8.602;2023-06-05T06:44:01;17.86;85.12
77052;SHT30;65980;44.898;8.602;2023-06-05T06:50:34;17.66;85.71
77052;SHT30;65980;44.898;8.602;2023-06-05T06:58:21;17.89;85.50
77052;SHT30;65980;44.898;8.602;2023-06-05T07:05:18;17.90;84.99
77052;SHT30;65980;44.898;8.602;2023-06-05T07:08:30;17.99;84.60
77052;SHT30;65980;44.898;8.602;2023-06-05T07:16:04;18.00;84.22
77052;SHT30;65980;44.898;8.602;2023-06-05T07:19:20;18.21;82.74
77052;SHT30;65980;44.898;8.602;2023-06-05T07:35:14;19.03;79.56
77052;SHT30;65980;44.898;8.602;2023-06-05T07:38:56;19.15;80.45
77052;SHT30;65980;44.898;8.602;2023-06-05T07:42:17;18.90;80.76
77052;SHT30;65980;44.898;8.602;2023-06-05T07:46:00;19.04;80.43
77052;SHT30;65980;44.898;8.602;2023-06-05T07:52:48;19.14;79.97
77052;SHT30;65980;44.898;8.602;2023-06-05T07:56:18;19.41;79.19
77052;SHT30;65980;44.898;8.602;2023-06-05T07:59:29;19.61;78.34
77052;SHT30;65980;44.898;8.602;2023-06-05T08:02:33;19.48;79.67
77052;SHT30;65980;44.898;8.602;2023-06-05T08:10:09;19.83;77.81
77052;SHT30;65980;44.898;8.602;2023-06-05T08:13:17;20.13;76.73
77052;SHT30;65980;44.898;8.602;2023-06-05T08:16:21;20.35;74.52
77052;SHT30;65980;44.898;8.602;2023-06-05T08:19:30;20.64;73.85
77052;SHT30;65980;44.898;8.602;2023-06-05T08:22:46;20.68;72.92
77052;SHT30;65980;44.898;8.602;2023-06-05T08:26:14;20.59;73.27
77052;SHT30;65980;44.898;8.602;2023-06-05T08:29:27;20.72;74.49
77052;SHT30;65980;44.898;8.602;2023-06-05T08:40:25;20.10;74.25
77052;SHT30;65980;44.898;8.602;2023-06-05T08:48:29;20.92;72.52
77052;SHT30;65980;44.898;8.602;2023-06-05T08:51:49;21.08;73.02
77052;SHT30;65980;44.898;8.602;2023-06-05T08:55:04;20.93;71.29
77052;SHT30;65980;44.898;8.602;2023-06-05T08:58:15;20.73;71.46
77052;SHT30;65980;44.898;8.602;2023-06-05T09:04:56;20.87;71.60
77052;SHT30;65980;44.898;8.602;2023-06-05T09:08:33;20.72;71.78
77052;SHT30;65980;44.898;8.602;2023-06-05T09:12:15;20.67;72.04
77052;SHT30;65980;44.898;8.602;2023-06-05T09:15:39;20.71;71.72
77052;SHT30;65980;44.898;8.602;2023-06-05T09:19:05;20.76;72.36
77052;SHT30;65980;44.898;8.602;2023-06-05T09:22:31;20.71;72.25
77052;SHT30;65980;44.898;8.602;2023-06-05T09:26:06;20.21;72.91
77052;SHT30;65980;44.898;8.602;2023-06-05T09:29:13;20.35;73.48
77052;SHT30;65980;44.898;8.602;2023-06-05T09:32:27;20.53;73.66
77052;SHT30;65980;44.898;8.602;2023-06-05T09:35:36;20.58;73.09
77052;SHT30;65980;44.898;8.602;2023-06-05T09:38:44;20.47;72.38
77052;SHT30;65980;44.898;8.602;2023-06-05T09:41:50;20.58;73.24
77052;SHT30;65980;44.898;8.602;2023-06-05T09:45:04;20.71;72.36
77052;SHT30;65980;44.898;8.602;2023-06-05T09:52:28;20.38;73.23
77052;SHT30;65980;44.898;8.602;2023-06-05T09:59:51;20.30;73.62
77052;SHT30;65980;44.898;8.602;2023-06-05T10:03:30;20.06;75.35
77052;SHT30;65980;44.898;8.602;2023-06-05T10:07:06;19.93;75.37
77052;SHT30;65980;44.898;8.602;2023-06-05T10:14:05;20.17;75.74
77052;SHT30;65980;44.898;8.602;2023-06-05T10:17:15;20.18;75.05
77052;SHT30;65980;44.898;8.602;2023-06-05T10:20:32;20.48;74.73
77052;SHT30;65980;44.898;8.602;2023-06-05T10:23:45;20.67;74.10
77052;SHT30;65980;44.898;8.602;2023-06-05T10:40:15;20.97;71.28
77052;SHT30;65980;44.898;8.602;2023-06-05T10:47:50;20.97;72.25
77052;SHT30;65980;44.898;8.602;2023-06-05T11:30:50;22.23;66.35
77052;SHT30;65980;44.898;8.602;2023-06-05T11:33:56;22.40;65.83
77052;SHT30;65980;44.898;8.602;2023-06-05T11:37:22;22.17;66.32
77052;SHT30;65980;44.898;8.602;2023-06-05T11:40:27;22.23;65.35
77052;SHT30;65980;44.898;8.602;2023-06-05T11:43:32;22.31;65.04
77052;SHT30;65980;44.898;8.602;2023-06-05T11:50:59;22.45;64.21
77052;SHT30;65980;44.898;8.602;2023-06-05T11:54:03;22.43;64.57
77052;SHT30;65980;44.898;8.602;2023-06-05T11:57:09;22.55;64.27
77052;SHT30;65980;44.898;8.602;2023-06-05T12:00:15;22.83;62.74
77052;SHT30;65980;44.898;8.602;2023-06-05T12:06:58;22.45;60.55
77052;SHT30;65980;44.898;8.602;2023-06-05T12:10:52;22.91;61.56
77052;SHT30;65980;44.898;8.602;2023-06-05T12:13:56;22.62;62.48
77052;SHT30;65980;44.898;8.602;2023-06-05T12:17:08;22.88;62.14
77052;SHT30;65980;44.898;8.602;2023-06-05T12:20:17;22.96;61.13
77052;SHT30;65980;44.898;8.602;2023-06-05T12:26:59;22.85;62.19
77052;SHT30;65980;44.898;8.602;2023-06-05T12:30:12;23.00;61.78
77052;SHT30;65980;44.898;8.602;2023-06-05T12:33:23;23.43;61.38
77052;SHT30;65980;44.898;8.602;2023-06-05T12:40:49;23.03;60.40
77052;SHT30;65980;44.898;8.602;2023-06-05T12:44:01;22.99;60.97
77052;SHT30;65980;44.898;8.602;2023-06-05T12:47:06;23.28;60.49
77052;SHT30;65980;44.898;8.602;2023-06-05T12:50:11;23.75;59.17
77052;SHT30;65980;44.898;8.602;2023-06-05T12:53:16;23.81;56.78
77052;SHT30;65980;44.898;8.602;2023-06-05T12:56:21;23.93;57.02
77052;SHT30;65980;44.898;8.602;2023-06-05T12:59:32;24.02;57.09
77052;SHT30;65980;44.898;8.602;2023-06-05T13:02:36;24.19;56.53
77052;SHT30;65980;44.898;8.602;2023-06-05T13:05:41;24.19;57.24
77052;SHT30;65980;44.898;8.602;2023-06-05T13:08:48;23.53;57.90
77052;SHT30;65980;44.898;8.602;2023-06-05T13:11:53;23.38;56.73
77052;SHT30;65980;44.898;8.602;2023-06-05T13:14:58;23.44;57.26
77052;SHT30;65980;44.898;8.602;2023-06-05T13:18:04;23.72;57.86
77052;SHT30;65980;44.898;8.602;2023-06-05T13:21:08;23.68;57.27
77052;SHT30;65980;44.898;8.602;2023-06-05T13:24:12;23.38;58.49
77052;SHT30;65980;44.898;8.602;2023-06-05T13:27:16;22.96;59.60
77052;SHT30;65980;44.898;8.602;2023-06-05T13:30:20;23.36;59.10
77052;SHT30;65980;44.898;8.602;2023-06-05T13:33:24;23.41;59.82
77052;SHT30;65980;44.898;8.602;2023-06-05T13:36:30;23.44;60.28
77052;SHT30;65980;44.898;8.602;2023-06-05T13:39:36;23.16;61.60
77052;SHT30;65980;44.898;8.602;2023-06-05T13:42:40;23.50;59.06
77052;SHT30;65980;44.898;8.602;2023-06-05T13:45:43;24.20;57.87
77052;SHT30;65980;44.898;8.602;2023-06-05T13:48:48;23.96;57.98
77052;SHT30;65980;44.898;8.602;2023-06-05T13:51:52;24.00;58.38
77052;SHT30;65980;44.898;8.602;2023-06-05T13:54:56;23.72;59.14
77052;SHT30;65980;44.898;8.602;2023-06-05T13:58:01;23.72;59.00
77052;SHT30;65980;44.898;8.602;2023-06-05T14:01:06;23.21;60.96
77052;SHT30;65980;44.898;8.602;2023-06-05T14:04:09;23.74;59.02
77052;SHT30;65980;44.898;8.602;2023-06-05T14:07:15;23.65;59.20
77052;SHT30;65980;44.898;8.602;2023-06-05T14:17:46;23.40;60.07
77052;SHT30;65980;44.898;8.602;2023-06-05T14:20:59;23.19;60.59
77052;SHT30;65980;44.898;8.602;2023-06-05T14:24:46;23.26;59.97
77052;SHT30;65980;44.898;8.602;2023-06-05T14:27:54;22.99;61.38
77052;SHT30;65980;44.898;8.602;2023-06-05T14:30:58;23.17;61.23
77052;SHT30;65980;44.898;8.602;2023-06-05T14:34:01;23.36;61.63
77052;SHT30;65980;44.898;8.602;2023-06-05T14:37:07;23.69;60.51
77052;SHT30;65980;44.898;8.602;2023-06-05T14:40:11;23.90;58.87
77052;SHT30;65980;44.898;8.602;2023-06-05T14:43:16;24.00;58.23
77052;SHT30;65980;44.898;8.602;2023-06-05T14:46:21;24.17;57.39
77052;SHT30;65980;44.898;8.602;2023-06-05T14:49:25;24.30;58.37
77052;SHT30;65980;44.898;8.602;2023-06-05T14:52:29;23.53;60.59
77052;SHT30;65980;44.898;8.602;2023-06-05T14:55:33;23.75;60.94
77052;SHT30;65980;44.898;8.602;2023-06-05T14:58:37;23.71;61.32
77052;SHT30;65980;44.898;8.602;2023-06-05T15:01:41;23.27;60.98
77052;SHT30;65980;44.898;8.602;2023-06-05T15:04:45;23.43;61.72
77052;SHT30;65980;44.898;8.602;2023-06-05T15:07:49;23.55;60.97
77052;SHT30;65980;44.898;8.602;2023-06-05T15:10:53;23.75;59.45
77052;SHT30;65980;44.898;8.602;2023-06-05T15:13:57;23.55;59.31
77052;SHT30;65980;44.898;8.602;2023-06-05T15:17:01;23.19;59.98
77052;SHT30;65980;44.898;8.602;2023-06-05T15:20:05;22.99;60.49
77052;SHT30;65980;44.898;8.602;2023-06-05T15:23:09;22.93;60.16
77052;SHT30;65980;44.898;8.602;2023-06-05T15:26:14;23.11;59.62
77052;SHT30;65980;44.898;8.602;2023-06-05T15:29:18;23.64;58.05
77052;SHT30;65980;44.898;8.602;2023-06-05T15:32:23;23.79;56.97
77052;SHT30;65980;44.898;8.602;2023-06-05T15:35:27;24.12;55.42
77052;SHT30;65980;44.898;8.602;2023-06-05T15:38:31;24.54;55.23
77052;SHT30;65980;44.898;8.602;2023-06-05T15:41:34;25.09;52.11
77052;SHT30;65980;44.898;8.602;2023-06-05T15:44:40;25.12;52.61
77052;SHT30;65980;44.898;8.602;2023-06-05T15:47:44;25.10;52.63
77052;SHT30;65980;44.898;8.602;2023-06-05T15:50:48;24.23;54.68
77052;SHT30;65980;44.898;8.602;2023-06-05T15:53:51;24.45;55.77
77052;SHT30;65980;44.898;8.602;2023-06-05T15:57:05;24.26;54.71
77052;SHT30;65980;44.898;8.602;2023-06-05T16:00:10;24.13;55.72
77052;SHT30;65980;44.898;8.602;2023-06-05T16:03:14;24.09;55.25
77052;SHT30;65980;44.898;8.602;2023-06-05T16:06:21;23.17;56.07
77052;SHT30;65980;44.898;8.602;2023-06-05T16:09:24;23.65;56.26
77052;SHT30;65980;44.898;8.602;2023-06-05T16:12:29;24.12;53.74
77052;SHT30;65980;44.898;8.602;2023-06-05T16:15:33;24.05;54.19
77052;SHT30;65980;44.898;8.602;2023-06-05T16:18:36;24.02;52.63
77052;SHT30;65980;44.898;8.602;2023-06-05T16:21:41;23.93;55.29
77052;SHT30;65980;44.898;8.602;2023-06-05T16:24:45;23.90;57.18
77052;SHT30;65980;44.898;8.602;2023-06-05T16:27:49;23.64;57.20
77052;SHT30;65980;44.898;8.602;2023-06-05T16:30:52;23.75;57.27
77052;SHT30;65980;44.898;8.602;2023-06-05T16:33:56;24.76;54.31
77052;SHT30;65980;44.898;8.602;2023-06-05T16:37:01;26.50;50.86
77052;SHT30;65980;44.898;8.602;2023-06-05T16:40:06;27.80;47.06
77052;SHT30;65980;44.898;8.602;2023-06-05T16:43:11;28.79;43.56
77052;SHT30;65980;44.898;8.602;2023-06-05T16:46:14;28.71;43.77
77052;SHT30;65980;44.898;8.602;2023-06-05T16:49:19;29.88;41.85
77052;SHT30;65980;44.898;8.602;2023-06-05T16:52:23;30.92;40.13
77052;SHT30;65980;44.898;8.602;2023-06-05T16:55:28;29.23;43.26
77052;SHT30;65980;44.898;8.602;2023-06-05T16:58:32;28.40;45.71
77052;SHT30;65980;44.898;8.602;2023-06-05T17:01:35;27.29;47.46
77052;SHT30;65980;44.898;8.602;2023-06-05T17:04:40;26.91;48.62
77052;SHT30;65980;44.898;8.602;2023-06-05T17:07:43;26.45;49.85
77052;SHT30;65980;44.898;8.602;2023-06-05T17:10:48;26.15;51.07
77052;SHT30;65980;44.898;8.602;2023-06-05T17:13:52;25.23;53.12
77052;SHT30;65980;44.898;8.602;2023-06-05T17:16:57;24.60;55.30
77052;SHT30;65980;44.898;8.602;2023-06-05T17:20:01;24.31;56.88
77052;SHT30;65980;44.898;8.602;2023-06-05T17:23:05;23.74;58.24
77052;SHT30;65980;44.898;8.602;2023-06-05T17:26:11;23.57;59.00
77052;SHT30;65980;44.898;8.602;2023-06-05T17:29:16;23.36;59.96
77052;SHT30;65980;44.898;8.602;2023-06-05T17:32:19;23.21;60.51
77052;SHT30;65980;44.898;8.602;2023-06-05T17:35:23;22.99;59.79
77052;SHT30;65980;44.898;8.602;2023-06-05T17:38:27;22.71;60.65
77052;SHT30;65980;44.898;8.602;2023-06-05T17:41:32;22.49;61.58
77052;SHT30;65980;44.898;8.602;2023-06-05T17:44:36;22.64;61.86
77052;SHT30;65980;44.898;8.602;2023-06-05T17:47:39;22.81;61.49
77052;SHT30;65980;44.898;8.602;2023-06-05T17:50:44;22.79;61.88
77052;SHT30;65980;44.898;8.602;2023-06-05T17:53:47;22.51;62.52
77052;SHT30;65980;44.898;8.602;2023-06-05T17:56:53;22.72;61.63
77052;SHT30;65980;44.898;8.602;2023-06-05T17:59:56;22.73;61.82
77052;SHT30;65980;44.898;8.602;2023-06-05T18:03:00;22.14;62.55
77052;SHT30;65980;44.898;8.602;2023-06-05T18:06:05;22.24;63.01
77052;SHT30;65980;44.898;8.602;2023-06-05T18:09:11;22.29;62.39
77052;SHT30;65980;44.898;8.602;2023-06-05T18:12:15;22.17;62.61
77052;SHT30;65980;44.898;8.602;2023-06-05T18:15:20;22.27;62.87
77052;SHT30;65980;44.898;8.602;2023-06-05T18:18:23;22.33;63.06
77052;SHT30;65980;44.898;8.602;2023-06-05T18:21:28;22.29;62.72
77052;SHT30;65980;44.898;8.602;2023-06-05T18:24:33;21.97;63.35
77052;SHT30;65980;44.898;8.602;2023-06-05T18:27:38;21.99;63.09
77052;SHT30;65980;44.898;8.602;2023-06-05T18:30:42;21.74;63.31
77052;SHT30;65980;44.898;8.602;2023-06-05T18:33:46;21.86;63.40
77052;SHT30;65980;44.898;8.602;2023-06-05T18:36:51;21.82;62.57
77052;SHT30;65980;44.898;8.602;2023-06-05T18:39:55;21.65;62.54
77052;SHT30;65980;44.898;8.602;2023-06-05T18:43:01;21.75;62.64
77052;SHT30;65980;44.898;8.602;2023-06-05T18:46:04;21.65;62.57
77052;SHT30;65980;44.898;8.602;2023-06-05T18:49:09;21.63;62.50
77052;SHT30;65980;44.898;8.602;2023-06-05T18:52:13;21.44;63.27
77052;SHT30;65980;44.898;8.602;2023-06-05T18:55:18;21.47;63.67
77052;SHT30;65980;44.898;8.602;2023-06-05T18:58:22;21.40;63.38
77052;SHT30;65980;44.898;8.602;2023-06-05T19:01:27;21.27;63.62
77052;SHT30;65980;44.898;8.602;2023-06-05T19:04:31;21.27;63.98
77052;SHT30;65980;44.898;8.602;2023-06-05T19:07:35;21.17;64.54
77052;SHT30;65980;44.898;8.602;2023-06-05T19:10:40;21.14;65.15
77052;SHT30;65980;44.898;8.602;2023-06-05T19:13:45;21.20;65.05
77052;SHT30;65980;44.898;8.602;2023-06-05T19:16:49;21.14;65.29
77052;SHT30;65980;44.898;8.602;2023-06-05T19:19:54;20.99;66.03
77052;SHT30;65980;44.898;8.602;2023-06-05T19:22:58;20.92;65.86
77052;SHT30;65980;44.898;8.602;2023-06-05T19:26:02;20.83;67.09
77052;SHT30;65980;44.898;8.602;2023-06-05T19:29:07;20.89;66.92
77052;SHT30;65980;44.898;8.602;2023-06-05T19:32:11;20.75;67.12
77052;SHT30;65980;44.898;8.602;2023-06-05T19:35:14;20.75;67.00
77052;SHT30;65980;44.898;8.602;2023-06-05T19:38:18;20.93;67.49
77052;SHT30;65980;44.898;8.602;2023-06-05T19:41:22;20.47;68.48
77052;SHT30;65980;44.898;8.602;2023-06-05T19:44:27;20.55;68.27
77052;SHT30;65980;44.898;8.602;2023-06-05T19:47:30;20.59;68.04
77052;SHT30;65980;44.898;8.602;2023-06-05T19:50:34;20.72;67.97
77052;SHT30;65980;44.898;8.602;2023-06-05T19:53:39;20.64;68.31
77052;SHT30;65980;44.898;8.602;2023-06-05T19:56:44;20.65;68.86
77052;SHT30;65980;44.898;8.602;2023-06-05T19:59:48;20.44;68.92
77052;SHT30;65980;44.898;8.602;2023-06-05T20:02:54;20.56;68.82
77052;SHT30;65980;44.898;8.602;2023-06-05T20:05:57;20.59;68.84
77052;SHT30;65980;44.898;8.602;2023-06-05T20:09:02;20.32;70.05
77052;SHT30;65980;44.898;8.602;2023-06-05T20:12:05;20.44;69.72
77052;SHT30;65980;44.898;8.602;2023-06-05T20:15:09;20.64;69.59
77052;SHT30;65980;44.898;8.602;2023-06-05T20:18:14;20.55;69.26
77052;SHT30;65980;44.898;8.602;2023-06-05T20:21:19;20.73;69.14
77052;SHT30;65980;44.898;8.602;2023-06-05T20:24:24;20.64;69.17
77052;SHT30;65980;44.898;8.602;2023-06-05T20:27:28;20.49;69.74
77052;SHT30;65980;44.898;8.602;2023-06-05T20:30:34;20.76;69.66
77052;SHT30;65980;44.898;8.602;2023-06-05T20:33:39;20.73;69.67
77052;SHT30;65980;44.898;8.602;2023-06-05T20:36:44;20.56;69.95
77052;SHT30;65980;44.898;8.602;2023-06-05T20:39:48;20.48;70.30
77052;SHT30;65980;44.898;8.602;2023-06-05T20:42:54;20.51;70.38
77052;SHT30;65980;44.898;8.602;2023-06-05T20:46:02;20.61;70.03
77052;SHT30;65980;44.898;8.602;2023-06-05T20:49:07;20.73;69.84
77052;SHT30;65980;44.898;8.602;2023-06-05T20:52:11;20.78;70.21
77052;SHT30;65980;44.898;8.602;2023-06-05T20:55:15;20.64;70.30
77052;SHT30;65980;44.898;8.602;2023-06-05T20:58:20;20.45;70.72
77052;SHT30;65980;44.898;8.602;2023-06-05T21:01:26;20.51;70.94
77052;SHT30;65980;44.898;8.602;2023-06-05T21:04:32;20.41;70.86
77052;SHT30;65980;44.898;8.602;2023-06-05T21:07:36;20.45;70.35
77052;SHT30;65980;44.898;8.602;2023-06-05T21:10:41;20.58;70.53
77052;SHT30;65980;44.898;8.602;2023-06-05T21:13:45;20.42;70.44
77052;SHT30;65980;44.898;8.602;2023-06-05T21:16:48;20.48;70.68
77052;SHT30;65980;44.898;8.602;2023-06-05T21:19:52;20.48;70.38
77052;SHT30;65980;44.898;8.602;2023-06-05T21:22:57;20.41;70.52
77052;SHT30;65980;44.898;8.602;2023-06-05T21:26:02;20.59;70.64
77052;SHT30;65980;44.898;8.602;2023-06-05T21:29:06;20.47;70.25
77052;SHT30;65980;44.898;8.602;2023-06-05T21:32:10;20.40;71.01
77052;SHT30;65980;44.898;8.602;2023-06-05T21:35:15;20.32;71.13
77052;SHT30;65980;44.898;8.602;2023-06-05T21:38:19;20.35;71.20
77052;SHT30;65980;44.898;8.602;2023-06-05T21:41:23;20.21;71.70
77052;SHT30;65980;44.898;8.602;2023-06-05T21:44:27;20.20;71.50
77052;SHT30;65980;44.898;8.602;2023-06-05T21:47:31;20.32;71.71
77052;SHT30;65980;44.898;8.602;2023-06-05T21:50:35;20.21;71.86
77052;SHT30;65980;44.898;8.602;2023-06-05T21:53:39;20.30;71.53
77052;SHT30;65980;44.898;8.602;2023-06-05T21:56:43;20.35;71.22
77052;SHT30;65980;44.898;8.602;2023-06-05T21:59:47;20.24;71.82
77052;SHT30;65980;44.898;8.602;2023-06-05T22:02:51;20.21;72.27
77052;SHT30;65980;44.898;8.602;2023-06-05T22:05:55;20.16;72.11
77052;SHT30;65980;44.898;8.602;2023-06-05T22:09:02;20.20;72.25
77052;SHT30;65980;44.898;8.602;2023-06-05T22:12:07;20.20;72.19
77052;SHT30;65980;44.898;8.602;2023-06-05T22:15:15;20.01;72.70
77052;SHT30;65980;44.898;8.602;2023-06-05T22:18:22;20.16;72.46
77052;SHT30;65980;44.898;8.602;2023-06-05T22:21:30;20.03;72.54
77052;SHT30;65980;44.898;8.602;2023-06-05T22:24:36;20.16;72.62
77052;SHT30;65980;44.898;8.602;2023-06-05T22:27:41;20.28;72.65
77052;SHT30;65980;44.898;8.602;2023-06-05T22:30:45;20.16;72.57
77052;SHT30;65980;44.898;8.602;2023-06-05T22:33:52;20.20;72.30
77052;SHT30;65980;44.898;8.602;2023-06-05T22:36:56;20.21;72.55
77052;SHT30;65980;44.898;8.602;2023-06-05T22:40:05;20.24;72.30
77052;SHT30;65980;44.898;8.602;2023-06-05T22:43:09;20.28;72.42
77052;SHT30;65980;44.898;8.602;2023-06-05T22:46:14;20.07;72.65
77052;SHT30;65980;44.898;8.602;2023-06-05T22:49:18;19.98;72.86
77052;SHT30;65980;44.898;8.602;2023-06-05T22:52:25;20.00;72.78
77052;SHT30;65980;44.898;8.602;2023-06-05T22:55:29;19.93;73.50
77052;SHT30;65980;44.898;8.602;2023-06-05T22:58:38;20.18;72.79
77052;SHT30;65980;44.898;8.602;2023-06-05T23:01:42;20.28;72.63
77052;SHT30;65980;44.898;8.602;2023-06-05T23:04:47;20.27;72.71
77052;SHT30;65980;44.898;8.602;2023-06-05T23:07:52;20.30;73.24
77052;SHT30;65980;44.898;8.602;2023-06-05T23:10:56;19.98;73.93
77052;SHT30;65980;44.898;8.602;2023-06-05T23:14:00;19.78;74.75
77052;SHT30;65980;44.898;8.602;2023-06-05T23:17:04;19.57;75.77